Time;durP1;ratioP1;P1;durP2;ratioP2;P2;SDS_P1;SDS_P2;PMS_P1;PMS_P2;Temp;Humidity;BMP_temperature;BMP_pressure;BME280_temperature;BME280_humidity;BME280_pressure;Samples;Min_cycle;Max_cycle;Signal;HPM_P1;HPM_P2
2021/12/03 00:00:54;;;;;;;18.20;10.52;;;-0.90;99.90;;;;;;5073217;28;20095;-89
2021/12/03 00:03:42;;;;;;;18.10;10.63;;;-1.00;99.90;;;;;;5058309;28;20131;-88
2021/12/03 00:06:34;;;;;;;23.75;11.45;;;-1.00;99.90;;;;;;5068848;28;20043;-87
2021/12/03 00:09:22;;;;;;;17.88;10.40;;;-1.00;99.90;;;;;;5059836;28;20052;-86
2021/12/03 00:12:15;;;;;;;20.90;11.30;;;-1.00;99.90;;;;;;5080538;28;20066;-87
2021/12/03 00:15:06;;;;;;;19.35;9.30;;;-1.00;99.90;;;;;;5066657;28;20052;-87
2021/12/03 00:18:03;;;;;;;24.15;11.88;;;-1.00;99.90;;;;;;5083149;28;20122;-87
2021/12/03 00:20:52;;;;;;;16.77;11.00;;;-1.10;99.90;;;;;;5082308;28;20044;-86
2021/12/03 00:23:40;;;;;;;22.67;11.32;;;-1.10;99.90;;;;;;5092142;28;20134;-88
2021/12/03 00:26:28;;;;;;;25.00;11.85;;;-1.10;99.90;;;;;;5070976;28;20052;-91
2021/12/03 00:29:15;;;;;;;18.55;11.25;;;-1.00;99.90;;;;;;5077596;28;20040;-88
2021/12/03 00:32:05;;;;;;;16.77;11.68;;;-1.00;99.90;;;;;;5072881;28;20113;-88
2021/12/03 00:34:53;;;;;;;18.75;11.05;;;-0.90;99.90;;;;;;5076058;28;20044;-92
2021/12/03 00:37:43;;;;;;;22.27;11.70;;;-0.90;99.90;;;;;;5089812;28;20110;-88
2021/12/03 00:40:38;;;;;;;17.70;10.85;;;-0.80;99.90;;;;;;5076704;28;20127;-87
2021/12/03 00:43:26;;;;;;;20.98;10.93;;;-0.80;99.90;;;;;;5082974;28;20089;-87
2021/12/03 00:46:23;;;;;;;22.35;11.30;;;-0.70;99.90;;;;;;5081917;28;20051;-87
2021/12/03 00:49:10;;;;;;;21.60;11.32;;;-0.70;99.90;;;;;;5046407;28;20053;-89
2021/12/03 00:52:00;;;;;;;18.88;11.52;;;-0.80;99.90;;;;;;5041170;28;20059;-91
2021/12/03 00:54:49;;;;;;;19.52;11.32;;;-0.70;99.90;;;;;;5066841;28;20040;-90
2021/12/03 00:57:40;;;;;;;22.55;11.70;;;-0.60;99.90;;;;;;5061885;28;20353;-86
2021/12/03 01:00:31;;;;;;;24.23;11.65;;;-0.60;99.90;;;;;;5063090;28;20045;-87
2021/12/03 01:03:26;;;;;;;21.15;11.57;;;-0.60;99.90;;;;;;5069499;28;20059;-86
2021/12/03 01:06:15;;;;;;;20.38;11.30;;;-0.50;99.90;;;;;;5063015;28;20063;-89
2021/12/03 01:09:04;;;;;;;21.17;12.00;;;-0.50;99.90;;;;;;5082182;28;20123;-89
2021/12/03 01:11:53;;;;;;;22.42;11.35;;;-0.50;99.90;;;;;;5061932;28;20098;-88
2021/12/03 01:14:45;;;;;;;24.13;12.23;;;-0.50;99.90;;;;;;5062051;28;20155;-88
2021/12/03 01:17:32;;;;;;;23.05;11.93;;;-0.60;99.90;;;;;;5063524;28;20399;-88
2021/12/03 01:20:21;;;;;;;21.98;11.05;;;-0.60;99.90;;;;;;5068587;28;20040;-90
2021/12/03 01:23:11;;;;;;;20.92;12.23;;;-0.60;99.90;;;;;;5065495;28;20049;-87
2021/12/03 01:25:58;;;;;;;22.00;11.57;;;-0.50;99.90;;;;;;5081384;28;20128;-89
2021/12/03 01:28:46;;;;;;;20.42;11.30;;;-0.60;99.90;;;;;;5061845;28;20048;-89
2021/12/03 01:31:36;;;;;;;21.05;11.85;;;-0.50;99.90;;;;;;5085997;28;20047;-86
2021/12/03 01:34:25;;;;;;;20.35;12.00;;;-0.50;99.90;;;;;;5073749;28;20100;-88
2021/12/03 01:37:13;;;;;;;20.23;11.25;;;-0.50;99.90;;;;;;5058501;28;20041;-90
2021/12/03 01:40:00;;;;;;;22.48;12.88;;;-0.50;99.90;;;;;;5064756;28;20201;-88
2021/12/03 01:42:48;;;;;;;23.30;12.93;;;-0.50;99.90;;;;;;5085971;28;20056;-88
2021/12/03 01:45:38;;;;;;;22.58;11.82;;;-0.50;99.90;;;;;;5077461;28;20051;-88
2021/12/03 01:48:29;;;;;;;26.48;12.55;;;-0.50;99.90;;;;;;5102886;28;20028;-90
2021/12/03 01:51:19;;;;;;;19.23;11.60;;;-0.60;99.90;;;;;;5090010;28;20151;-88
2021/12/03 01:54:06;;;;;;;19.17;11.05;;;-0.60;99.90;;;;;;5075981;28;20071;-87
2021/12/03 01:56:54;;;;;;;17.70;11.70;;;-0.60;99.90;;;;;;5078103;28;20055;-88
2021/12/03 01:59:41;;;;;;;25.10;12.50;;;-0.70;99.90;;;;;;5083796;28;20041;-88
2021/12/03 02:02:29;;;;;;;19.67;12.43;;;-0.70;99.90;;;;;;5068638;28;20033;-89
2021/12/03 02:05:17;;;;;;;20.55;11.85;;;-0.70;99.90;;;;;;5080618;28;20040;-89
2021/12/03 02:08:07;;;;;;;26.15;11.85;;;-0.70;99.90;;;;;;5076458;28;20068;-89
2021/12/03 02:10:55;;;;;;;21.98;12.20;;;-0.70;99.90;;;;;;5081654;28;20124;-90
2021/12/03 02:13:44;;;;;;;19.08;11.98;;;-0.70;99.90;;;;;;5100647;28;20106;-87
2021/12/03 02:16:33;;;;;;;22.10;12.95;;;-0.70;99.90;;;;;;5099887;28;20066;-89
2021/12/03 02:19:22;;;;;;;19.05;12.52;;;-0.70;99.90;;;;;;5076578;28;20127;-89
2021/12/03 02:22:10;;;;;;;22.77;13.68;;;-0.70;99.90;;;;;;5078309;28;20487;-86
2021/12/03 02:24:57;;;;;;;21.48;13.77;;;-0.70;99.90;;;;;;5049488;28;20044;-89
2021/12/03 02:27:45;;;;;;;28.50;15.50;;;-0.70;99.90;;;;;;5068453;28;20045;-88
2021/12/03 02:30:33;;;;;;;26.83;14.98;;;-0.60;99.90;;;;;;5070470;28;20100;-89
2021/12/03 02:33:21;;;;;;;24.80;14.93;;;-0.60;99.90;;;;;;5062574;28;20048;-91
2021/12/03 02:36:10;;;;;;;23.95;15.07;;;-0.60;99.90;;;;;;5061919;28;20060;-87
2021/12/03 02:39:00;;;;;;;26.20;14.63;;;-0.60;99.90;;;;;;5068470;28;20147;-88
2021/12/03 02:41:48;;;;;;;31.23;14.95;;;-0.50;99.90;;;;;;5064939;28;20514;-86
2021/12/03 02:44:36;;;;;;;29.40;15.45;;;-0.50;99.90;;;;;;5061569;28;20448;-88
2021/12/03 02:47:24;;;;;;;31.35;15.18;;;-0.50;99.90;;;;;;5065798;28;20045;-88
2021/12/03 02:50:13;;;;;;;23.40;15.05;;;-0.50;99.90;;;;;;5073494;28;20051;-90
2021/12/03 02:53:03;;;;;;;30.58;16.58;;;-0.50;99.90;;;;;;5090744;28;20573;-89
2021/12/03 02:55:51;;;;;;;31.55;16.83;;;-0.50;99.90;;;;;;5061075;28;20052;-88
2021/12/03 02:58:39;;;;;;;28.25;16.38;;;-0.50;99.90;;;;;;5084191;28;20080;-90
2021/12/03 03:01:30;;;;;;;25.45;15.90;;;-0.60;99.90;;;;;;5074334;28;20063;-87
2021/12/03 03:04:19;;;;;;;;;;;-0.60;99.90;;;;;;5086596;28;20048;-87
2021/12/03 03:07:07;;;;;;;25.23;15.27;;;-0.60;99.90;;;;;;5092343;28;20001;-86
2021/12/03 03:09:58;;;;;;;24.65;15.13;;;-0.70;99.90;;;;;;5086910;28;20052;-86
2021/12/03 03:12:45;;;;;;;25.92;14.05;;;-0.70;99.90;;;;;;5081969;28;20039;-87
2021/12/03 03:15:36;;;;;;;26.77;14.65;;;-0.70;99.90;;;;;;5092648;28;20359;-89
2021/12/03 03:18:27;;;;;;;25.20;14.13;;;-0.70;99.90;;;;;;5093936;28;20044;-88
2021/12/03 03:21:15;;;;;;;22.65;13.40;;;-0.60;99.90;;;;;;5071433;28;20049;-89
2021/12/03 03:24:03;;;;;;;28.52;14.98;;;-0.60;99.90;;;;;;5091593;28;20040;-88
2021/12/03 03:26:51;;;;;;;28.52;16.73;;;-0.60;99.90;;;;;;5061821;28;20048;-87
2021/12/03 03:29:39;;;;;;;29.13;15.68;;;-0.60;99.90;;;;;;5059479;28;20040;-88
2021/12/03 03:32:28;;;;;;;27.90;15.68;;;-0.60;99.90;;;;;;5060260;28;20048;-88
2021/12/03 03:35:16;;;;;;;31.27;16.33;;;-0.60;99.90;;;;;;5090171;28;20048;-89
2021/12/03 03:38:04;;;;;;;29.20;15.68;;;-0.60;99.90;;;;;;5061770;28;20052;-89
2021/12/03 03:40:53;;;;;;;23.58;14.23;;;-0.50;99.90;;;;;;5071182;28;20068;-88
2021/12/03 03:43:41;;;;;;;33.15;16.05;;;-0.50;99.90;;;;;;5087272;28;20095;-88
2021/12/03 03:46:30;;;;;;;25.63;15.57;;;-0.50;99.90;;;;;;5078513;28;20043;-90
2021/12/03 03:49:21;;;;;;;29.38;15.73;;;-0.50;99.90;;;;;;5053831;28;20401;-88
2021/12/03 03:52:09;;;;;;;30.77;15.63;;;-0.50;99.90;;;;;;5049633;28;20056;-91
2021/12/03 03:54:57;;;;;;;26.85;15.88;;;-0.50;99.90;;;;;;5067983;28;20127;-90
2021/12/03 03:57:46;;;;;;;28.45;15.40;;;-0.50;99.90;;;;;;5047793;28;20644;-88
2021/12/03 04:00:40;;;;;;;25.02;16.55;;;-0.50;99.90;;;;;;5058280;28;20063;-89
2021/12/03 04:03:30;;;;;;;28.23;15.77;;;-0.50;99.90;;;;;;5070285;28;20040;-89
2021/12/03 04:06:19;;;;;;;30.05;16.65;;;-0.50;99.90;;;;;;5085850;28;20040;-89
2021/12/03 04:09:07;;;;;;;27.10;15.88;;;-0.50;99.90;;;;;;5065110;28;20062;-87
2021/12/03 04:11:54;;;;;;;32.22;16.17;;;-0.50;99.90;;;;;;5063714;28;20055;-88
2021/12/03 04:14:42;;;;;;;26.25;16.30;;;-0.50;99.90;;;;;;5049381;28;20060;-87
2021/12/03 04:17:30;;;;;;;25.02;14.43;;;-0.50;99.90;;;;;;5069730;28;20066;-86
2021/12/03 04:20:19;;;;;;;23.98;15.48;;;-0.50;99.90;;;;;;5068752;28;20060;-90
2021/12/03 04:23:07;;;;;;;24.48;14.90;;;-0.50;99.90;;;;;;5079766;28;20059;-87
2021/12/03 04:25:54;;;;;;;24.67;15.07;;;-0.50;99.90;;;;;;5063790;28;20047;-90
2021/12/03 04:28:42;;;;;;;26.38;15.30;;;-0.50;99.90;;;;;;5057804;28;20075;-90
2021/12/03 04:31:30;;;;;;;23.70;15.10;;;-0.50;99.90;;;;;;5064001;28;20474;-89
2021/12/03 04:34:20;;;;;;;25.58;14.55;;;-0.50;99.90;;;;;;5081710;28;20481;-89
2021/12/03 04:37:08;;;;;;;22.63;14.07;;;-0.50;99.90;;;;;;5057847;28;20056;-87
2021/12/03 04:39:55;;;;;;;23.20;14.63;;;-0.50;99.90;;;;;;5046105;28;20049;-89
2021/12/03 04:42:43;;;;;;;20.00;13.65;;;-0.50;99.90;;;;;;5058764;28;20053;-89
2021/12/03 04:45:31;;;;;;;22.17;14.18;;;-0.50;99.90;;;;;;5086262;28;20048;-89
2021/12/03 04:48:18;;;;;;;21.67;13.40;;;-0.50;99.90;;;;;;5061562;28;20052;-87
2021/12/03 04:51:08;;;;;;;25.48;15.65;;;-0.50;99.90;;;;;;5095306;28;20123;-88
2021/12/03 04:53:55;;;;;;;21.33;14.68;;;-0.50;99.90;;;;;;5082085;28;20063;-89
2021/12/03 04:56:43;;;;;;;22.45;13.95;;;-0.40;99.90;;;;;;5063414;28;20371;-87
2021/12/03 05:11:55;;;;;;;21.30;11.27;;;-0.50;99.90;;;;;;5085166;28;20093;-86
2021/12/03 05:35:48;;;;;;;14.93;10.02;;;-0.50;99.90;;;;;;5004149;28;20030;-86
2021/12/03 05:38:38;;;;;;;19.42;12.15;;;-0.60;99.90;;;;;;4990070;28;20042;-86
2021/12/03 05:41:35;;;;;;;18.77;11.40;;;-0.60;99.90;;;;;;5018244;28;20060;-85
2021/12/03 05:44:24;;;;;;;14.55;10.85;;;-0.60;99.90;;;;;;5046083;28;20041;-86
2021/12/03 05:47:12;;;;;;;16.35;10.68;;;-0.60;99.90;;;;;;5061984;28;20344;-86
2021/12/03 05:49:59;;;;;;;18.48;11.43;;;-0.60;99.90;;;;;;5054314;28;20066;-87
2021/12/03 05:52:49;;;;;;;16.80;10.80;;;-0.60;99.90;;;;;;5058777;28;20106;-87
2021/12/03 05:55:37;;;;;;;16.83;10.85;;;-0.70;99.90;;;;;;5048016;28;20049;-87
2021/12/03 05:58:25;;;;;;;19.05;11.30;;;-0.70;99.90;;;;;;5040305;28;20045;-86
2021/12/03 06:01:13;;;;;;;16.70;11.13;;;-0.70;99.90;;;;;;5062192;28;20060;-86
2021/12/03 06:04:00;;;;;;;16.02;10.77;;;-0.70;99.90;;;;;;5036354;28;20063;-88
2021/12/03 06:06:52;;;;;;;17.80;11.90;;;-0.70;99.90;;;;;;5057137;28;20045;-87
2021/12/03 06:09:41;;;;;;;19.05;12.02;;;-0.70;99.90;;;;;;5053224;28;20045;-85
2021/12/03 06:12:29;;;;;;;17.70;11.77;;;-0.70;99.90;;;;;;5026868;28;20087;-86
2021/12/03 06:15:17;;;;;;;22.40;12.30;;;-0.70;99.90;;;;;;5082979;28;20051;-85
2021/12/03 06:18:06;;;;;;;17.98;12.18;;;-0.60;99.90;;;;;;5062879;28;20045;-86
2021/12/03 06:20:53;;;;;;;19.70;12.60;;;-0.60;99.90;;;;;;5042108;28;20064;-87
2021/12/03 06:23:43;;;;;;;20.15;12.38;;;-0.60;99.90;;;;;;5038405;28;20121;-86
2021/12/03 06:26:32;;;;;;;20.20;11.80;;;-0.60;99.90;;;;;;5055551;28;20055;-88
2021/12/03 06:29:20;;;;;;;22.58;11.75;;;-0.60;99.90;;;;;;5048606;28;20037;-86
2021/12/03 06:32:09;;;;;;;19.08;12.52;;;-0.60;99.90;;;;;;5069632;28;20122;-86
2021/12/03 06:34:57;;;;;;;18.30;11.73;;;-0.60;99.90;;;;;;5056454;28;20507;-84
2021/12/03 06:37:51;;;;;;;20.60;10.98;;;-0.70;99.90;;;;;;5056306;28;20506;-86
2021/12/03 06:40:39;;;;;;;17.02;10.73;;;-0.70;99.90;;;;;;5053781;28;20133;-86
2021/12/03 06:43:27;;;;;;;15.10;8.93;;;-0.70;99.90;;;;;;5066498;28;20151;-92
2021/12/03 06:46:16;;;;;;;11.50;8.60;;;-0.80;99.90;;;;;;5057646;28;20120;-89
2021/12/03 06:49:03;;;;;;;11.25;8.35;;;-0.80;99.90;;;;;;5047431;28;20067;-87
2021/12/03 06:51:51;;;;;;;13.13;7.80;;;-0.90;99.90;;;;;;5079115;28;20060;-87
2021/12/03 06:54:59;;;;;;;10.85;8.13;;;-0.90;99.90;;;;;;5053340;28;20045;-89
2021/12/03 06:57:56;;;;;;;13.63;8.13;;;-1.00;99.90;;;;;;5047101;28;20044;-87
2021/12/03 07:00:51;;;;;;;11.23;7.68;;;-1.10;99.90;;;;;;5055524;28;20136;-87
2021/12/03 07:03:41;;;;;;;13.32;7.88;;;-1.10;99.90;;;;;;5069529;28;20049;-89
2021/12/03 07:06:38;;;;;;;9.93;7.35;;;-1.10;99.90;;;;;;5062103;28;20131;-87
2021/12/03 07:49:38;;;;;;;15.15;8.77;;;-1.10;99.90;;;;;;5093417;28;20398;-87
2021/12/03 07:52:33;;;;;;;13.60;8.50;;;-0.80;99.90;;;;;;5064943;28;20065;-88
2021/12/03 07:55:30;;;;;;;12.13;7.68;;;-0.80;99.90;;;;;;5078052;28;20037;-90
2021/12/03 07:59:15;;;;;;;;;;;;;;;;;;;;;
2021/12/03 08:10:56;;;;;;;;;;;;;;;;;;;;;
2021/12/03 08:13:53;;;;;;;10.48;5.35;;;-0.20;99.90;;;;;;4970701;28;20072;-86
2021/12/03 08:17:01;;;;;;;7.88;4.85;;;-0.10;99.90;;;;;;4940851;29;20060;-86
2021/12/03 08:19:50;;;;;;;8.07;4.10;;;0.00;99.90;;;;;;4937496;28;20245;-85
2021/12/03 08:27:17;;;;;;;;;;;;;;;;;;;;;
2021/12/03 08:31:02;;;;;;;;;;;;;;;;;;;;;
2021/12/03 08:34:24;;;;;;;8.75;4.40;;;0.10;99.90;;;;;;4930814;28;20445;-88
2021/12/03 08:37:34;;;;;;;6.55;4.65;;;0.20;99.90;;;;;;4958882;28;20121;-87
2021/12/03 08:40:42;;;;;;;7.55;4.88;;;0.30;99.90;;;;;;4968138;28;20054;-85
2021/12/03 08:43:32;;;;;;;6.05;4.50;;;0.60;99.90;;;;;;4973569;28;20046;-85
2021/12/03 08:46:28;;;;;;;5.68;4.75;;;0.70;99.90;;;;;;4973806;28;20133;-87
2021/12/03 08:49:37;;;;;;;8.20;4.95;;;0.80;99.90;;;;;;5053051;28;20079;-85
2021/12/03 08:56:10;;;;;;;8.77;5.07;;;1.00;99.90;;;;;;5042181;28;20041;-84
2021/12/03 08:58:58;;;;;;;7.15;5.20;;;1.00;99.90;;;;;;5032172;28;20057;-85
2021/12/03 09:01:46;;;;;;;7.63;5.43;;;1.20;99.90;;;;;;5025344;28;20612;-85
2021/12/03 09:04:37;;;;;;;8.50;4.85;;;1.40;99.90;;;;;;5023116;28;20052;-85
2021/12/03 09:07:33;;;;;;;7.15;4.78;;;1.60;99.90;;;;;;5029609;28;20076;-86
2021/12/03 09:11:15;;;;;;;8.73;4.45;;;1.70;99.90;;;;;;5021807;28;20038;-85
2021/12/03 09:15:02;;;;;;;7.03;3.78;;;1.70;99.90;;;;;;5035016;28;20037;-87
2021/12/03 09:22:52;;;;;;;6.57;3.78;;;2.10;99.90;;;;;;4932481;28;20385;-89
2021/12/03 09:26:16;;;;;;;5.00;3.33;;;2.80;99.90;;;;;;4963787;28;20157;-87
2021/12/03 09:33:57;;;;;;;6.03;3.65;;;4.50;99.90;;;;;;4963439;28;20057;-86
2021/12/03 09:37:01;;;;;;;6.78;4.20;;;4.60;99.90;;;;;;4929573;28;20113;-86
2021/12/03 09:39:50;;;;;;;6.60;3.83;;;4.70;99.90;;;;;;4938421;29;20047;-84
2021/12/03 09:42:40;;;;;;;11.18;3.20;;;4.80;99.90;;;;;;4983053;28;20054;-87
2021/12/03 09:45:32;;;;;;;5.10;3.28;;;4.60;99.90;;;;;;4975997;28;20046;-86
2021/12/03 09:48:53;;;;;;;5.95;3.55;;;4.90;99.90;;;;;;4965827;28;20122;-85
2021/12/03 09:52:30;;;;;;;6.82;3.17;;;6.00;99.90;;;;;;4957788;28;20053;-87
2021/12/03 09:55:20;;;;;;;6.10;3.40;;;6.40;96.70;;;;;;5007881;28;20041;-85
2021/12/03 10:01:14;;;;;;;3.30;2.95;;;5.00;97.80;;;;;;5002327;28;20047;-86
2021/12/03 10:04:24;;;;;;;5.53;2.83;;;4.70;97.50;;;;;;5008617;28;20679;-84
2021/12/03 10:11:38;;;;;;;6.35;3.03;;;5.60;96.90;;;;;;5022979;28;20045;-84
2021/12/03 10:17:36;;;;;;;6.28;3.45;;;5.30;96.70;;;;;;4969969;28;20046;-87
2021/12/03 10:20:46;;;;;;;5.88;3.80;;;5.70;96.20;;;;;;4964614;28;20038;-87
2021/12/03 10:28:01;;;;;;;5.60;3.95;;;6.60;93.40;;;;;;4966195;28;20069;-89
2021/12/03 11:00:05;;;;;;;6.93;3.40;;;5.90;93.30;;;;;;4868457;29;20140;-90
2021/12/03 11:52:09;;;;;;;7.63;4.40;;;2.30;99.90;;;;;;4963917;28;20126;-88
2021/12/03 12:15:36;;;;;;;5.68;2.72;;;3.30;99.90;;;;;;5013541;28;20046;-89
2021/12/03 12:29:54;;;;;;;7.13;3.10;;;3.50;99.90;;;;;;4956251;28;20130;-88
2021/12/03 12:33:00;;;;;;;5.50;3.38;;;2.90;99.90;;;;;;4937237;28;20087;-88
2021/12/03 13:12:05;;;;;;;4.20;2.60;;;6.50;88.40;;;;;;5019069;28;20738;-87
2021/12/03 13:56:22;;;;;;;4.95;3.40;;;2.90;99.90;;;;;;5029999;28;20130;-86
2021/12/03 14:42:24;;;;;;;11.15;4.32;;;2.60;99.90;;;;;;5011201;28;20041;-83
2021/12/03 14:52:15;;;;;;;4.07;2.40;;;2.50;99.90;;;;;;5028475;28;20041;-82
2021/12/03 14:54:57;;;;;;;2.38;2.10;;;2.30;99.90;;;;;;5010538;28;20041;-88
2021/12/03 14:57:51;;;;;;;6.30;2.90;;;2.10;99.90;;;;;;5006324;28;20041;-84
2021/12/03 15:00:51;;;;;;;4.47;2.80;;;1.90;99.90;;;;;;5005506;28;20069;-84
2021/12/03 15:10:07;;;;;;;2.95;2.42;;;1.80;99.90;;;;;;5029059;28;20049;-84
2021/12/03 15:22:52;;;;;;;9.38;3.33;;;1.30;99.90;;;;;;5010412;28;20061;-83
2021/12/03 15:25:25;;;;;;;7.35;4.05;;;1.30;99.90;;;;;;5020172;28;20477;-83
2021/12/03 16:04:42;;;;;;;11.18;6.07;;;0.50;99.90;;;;;;5029482;28;20044;-83
2021/12/03 16:10:59;;;;;;;19.10;5.65;;;0.60;99.90;;;;;;5025727;28;20033;-83
2021/12/03 16:13:58;;;;;;;9.02;5.18;;;0.60;99.90;;;;;;5011691;28;20057;-82
2021/12/03 16:22:38;;;;;;;10.98;6.32;;;0.60;99.90;;;;;;5028076;28;20390;-82
2021/12/03 16:44:35;;;;;;;11.00;6.38;;;0.40;99.90;;;;;;5021275;28;20064;-82
2021/12/03 16:53:16;;;;;;;9.55;5.53;;;0.50;99.90;;;;;;5033009;28;20045;-84
2021/12/03 16:56:11;;;;;;;8.80;4.57;;;0.50;99.90;;;;;;5034201;28;20049;-84
2021/12/03 16:58:59;;;;;;;6.65;4.13;;;0.60;99.90;;;;;;5002160;28;20077;-83
2021/12/03 17:02:04;;;;;;;10.45;3.60;;;0.60;99.90;;;;;;5025689;28;20494;-83
2021/12/03 17:28:14;;;;;;;6.47;4.10;;;0.80;99.90;;;;;;4956014;28;20043;-83
2021/12/03 17:51:43;;;;;;;6.53;4.00;;;0.80;99.90;;;;;;5014512;28;20053;-88
2021/12/03 18:00:21;;;;;;;7.28;4.32;;;0.70;99.90;;;;;;5022608;28;20152;-84
2021/12/03 18:03:35;;;;;;;9.85;4.15;;;0.70;99.90;;;;;;5006847;28;20498;-83
2021/12/03 18:09:54;;;;;;;7.72;4.80;;;0.70;99.90;;;;;;5022642;28;20069;-84
2021/12/03 18:47:00;;;;;;;7.38;5.07;;;1.00;99.90;;;;;;5019110;28;20049;-82
2021/12/03 18:55:51;;;;;;;7.28;5.82;;;1.00;99.90;;;;;;5027163;28;20137;-84
2021/12/03 18:58:39;;;;;;;7.35;5.35;;;1.00;99.90;;;;;;5001421;28;20049;-83
2021/12/03 19:01:29;;;;;;;8.05;5.53;;;1.00;99.90;;;;;;5009238;28;20060;-83
2021/12/03 19:07:34;;;;;;;15.20;6.75;;;1.00;99.90;;;;;;5023730;28;20045;-83
2021/12/03 19:10:20;;;;;;;11.30;6.50;;;1.10;99.90;;;;;;5028491;28;20386;-85
2021/12/03 19:13:11;;;;;;;8.25;6.45;;;1.10;99.90;;;;;;5006337;28;20038;-81
2021/12/03 19:16:02;;;;;;;9.55;6.40;;;1.10;99.90;;;;;;5007145;28;20049;-84
2021/12/03 19:18:52;;;;;;;12.48;7.18;;;1.10;99.90;;;;;;5016805;28;20041;-84
2021/12/03 19:21:40;;;;;;;11.38;6.72;;;1.00;99.90;;;;;;5014709;28;20041;-83
2021/12/03 19:24:28;;;;;;;9.70;5.85;;;1.00;99.90;;;;;;5012530;28;20514;-84
2021/12/03 19:27:15;;;;;;;15.15;7.25;;;1.00;99.90;;;;;;5016438;28;20064;-84
2021/12/03 19:30:04;;;;;;;8.85;6.75;;;1.00;99.90;;;;;;5015558;28;20446;-83
2021/12/03 19:32:51;;;;;;;10.85;7.25;;;1.00;99.90;;;;;;4994439;28;20486;-84
2021/12/03 19:35:39;;;;;;;12.95;8.20;;;1.00;99.90;;;;;;5001156;28;20045;-84
2021/12/03 19:38:27;;;;;;;10.30;6.97;;;1.00;99.90;;;;;;4994656;28;20052;-82
2021/12/03 19:41:19;;;;;;;9.77;7.00;;;1.00;99.90;;;;;;5015504;28;20050;-83
2021/12/03 19:44:12;;;;;;;8.23;5.70;;;1.00;99.90;;;;;;5008664;28;20041;-84
2021/12/03 19:47:00;;;;;;;12.63;7.82;;;1.00;99.90;;;;;;5011108;28;20050;-83
2021/12/03 19:50:19;;;;;;;15.52;8.32;;;1.10;99.90;;;;;;5014466;28;21431;-84
2021/12/03 19:53:28;;;;;;;12.07;6.28;;;1.10;99.90;;;;;;5011844;28;20034;-85
2021/12/03 19:56:12;;;;;;;9.90;6.75;;;1.10;99.90;;;;;;5010503;28;20049;-82
2021/12/03 19:59:01;;;;;;;10.10;5.63;;;1.10;99.90;;;;;;5012242;28;20067;-85
2021/12/03 20:01:49;;;;;;;9.85;6.18;;;1.10;99.90;;;;;;5015965;28;20602;-86
2021/12/03 20:04:37;;;;;;;8.75;6.15;;;1.10;99.90;;;;;;5012154;28;20056;-84
2021/12/03 20:07:24;;;;;;;8.18;5.78;;;1.10;99.90;;;;;;5012526;28;20061;-82
2021/12/03 20:10:14;;;;;;;8.68;5.75;;;1.00;99.90;;;;;;5015068;28;20485;-84
2021/12/03 20:13:04;;;;;;;8.63;5.45;;;1.10;99.90;;;;;;5004697;28;20048;-86
2021/12/03 20:18:54;;;;;;;7.57;5.28;;;1.10;99.90;;;;;;5021187;28;20053;-85
2021/12/03 20:21:55;;;;;;;13.65;6.10;;;1.10;99.90;;;;;;4989292;28;20041;-85
2021/12/03 20:28:11;;;;;;;;;;;1.00;99.90;;;;;;4999688;28;20042;-83
2021/12/03 20:31:05;;;;;;;10.45;5.10;;;1.10;99.90;;;;;;5013089;28;19936;-83
2021/12/03 20:34:02;;;;;;;9.45;5.93;;;1.10;99.90;;;;;;5001333;28;20041;-81
2021/12/03 20:39:41;;;;;;;8.68;5.68;;;1.00;99.90;;;;;;5000406;28;20072;-81
2021/12/03 20:42:38;;;;;;;7.63;5.20;;;1.00;99.90;;;;;;5007431;28;20056;-83
2021/12/03 20:51:31;;;;;;;7.47;4.95;;;1.10;99.90;;;;;;5015458;28;20046;-82
2021/12/03 20:57:14;;;;;;;10.38;5.68;;;1.20;99.90;;;;;;5029623;28;20052;-82
2021/12/03 21:09:26;;;;;;;9.95;4.75;;;1.30;99.90;;;;;;5018971;28;20045;-82
2021/12/03 21:12:32;;;;;;;9.13;5.88;;;1.30;99.90;;;;;;5000227;28;20057;-82
2021/12/03 21:15:35;;;;;;;11.38;6.80;;;1.30;99.90;;;;;;5011585;28;20045;-83
2021/12/03 21:24:20;;;;;;;6.33;4.83;;;1.30;99.90;;;;;;5019636;28;20052;-81
2021/12/03 21:27:17;;;;;;;10.30;5.20;;;1.30;99.90;;;;;;5016991;28;20037;-83
2021/12/03 21:37:58;;;;;;;9.73;4.65;;;1.30;99.90;;;;;;5020604;28;20577;-81
2021/12/03 21:42:38;;;;;;;6.65;4.85;;;1.40;99.90;;;;;;4997195;28;20109;-83
2021/12/03 21:45:25;;;;;;;6.32;4.75;;;1.40;99.90;;;;;;5002377;28;20062;-83
2021/12/03 21:48:13;;;;;;;8.35;4.88;;;1.40;99.90;;;;;;5007156;28;20499;-82
2021/12/03 21:51:00;;;;;;;6.18;4.97;;;1.40;99.90;;;;;;5000407;28;20042;-84
2021/12/03 21:53:48;;;;;;;6.47;4.72;;;1.40;99.90;;;;;;4992112;28;20041;-81
2021/12/03 21:56:36;;;;;;;10.40;5.35;;;1.40;99.90;;;;;;5000277;28;20046;-83
2021/12/03 21:59:23;;;;;;;5.75;4.90;;;1.40;99.90;;;;;;5003358;28;20118;-82
2021/12/03 22:02:11;;;;;;;9.85;4.82;;;1.40;99.90;;;;;;5004782;28;20050;-82
2021/12/03 22:04:58;;;;;;;8.27;4.75;;;1.40;99.90;;;;;;5003319;28;20108;-82
2021/12/03 22:07:46;;;;;;;7.55;4.72;;;1.30;99.90;;;;;;4992573;28;20061;-81
2021/12/03 22:10:33;;;;;;;10.50;5.30;;;1.30;99.90;;;;;;4978133;28;20050;-82
2021/12/03 22:13:28;;;;;;;9.48;4.60;;;1.30;99.90;;;;;;4971241;28;20075;-81
2021/12/03 22:16:16;;;;;;;6.68;4.30;;;1.30;99.90;;;;;;4998449;28;20050;-80
2021/12/03 22:19:05;;;;;;;5.10;4.10;;;1.40;99.90;;;;;;5009207;28;20528;-79
2021/12/03 22:21:53;;;;;;;7.70;4.10;;;1.40;99.90;;;;;;5009194;28;20046;-81
2021/12/03 22:24:43;;;;;;;7.00;4.10;;;1.40;99.90;;;;;;4976765;28;20053;-81
2021/12/03 22:27:32;;;;;;;10.18;4.60;;;1.40;99.90;;;;;;4984353;28;20114;-82
2021/12/03 22:30:20;;;;;;;5.70;4.35;;;1.30;99.90;;;;;;4992675;28;20054;-82
2021/12/03 22:33:11;;;;;;;7.50;4.20;;;1.30;99.90;;;;;;4992957;28;20396;-81
2021/12/03 22:36:00;;;;;;;6.68;4.60;;;1.30;99.90;;;;;;5005781;28;20389;-80
2021/12/03 22:38:47;;;;;;;7.70;4.50;;;1.30;99.90;;;;;;5013388;28;20045;-80
2021/12/03 22:41:38;;;;;;;6.15;4.10;;;1.30;99.90;;;;;;5002495;28;20046;-82
2021/12/03 22:44:27;;;;;;;6.60;3.78;;;1.30;99.90;;;;;;5016632;28;20057;-81
2021/12/03 22:47:18;;;;;;;5.13;4.13;;;1.30;99.90;;;;;;4976172;28;20049;-81
2021/12/03 22:53:00;;;;;;;6.45;3.83;;;1.30;99.90;;;;;;5021331;28;20434;-81
2021/12/03 22:55:49;;;;;;;6.05;4.28;;;1.40;99.90;;;;;;4998259;28;20438;-80
2021/12/03 22:58:38;;;;;;;5.60;3.97;;;1.40;99.90;;;;;;4996128;28;20038;-80
2021/12/03 23:01:28;;;;;;;5.60;4.30;;;1.40;99.90;;;;;;5015425;28;20616;-80
2021/12/03 23:04:18;;;;;;;8.43;4.35;;;1.40;99.90;;;;;;5013059;28;20397;-81
2021/12/03 23:07:08;;;;;;;8.25;4.68;;;1.40;99.90;;;;;;5001312;28;20055;-83
2021/12/03 23:09:55;;;;;;;9.00;5.00;;;1.40;99.90;;;;;;5009704;28;20450;-82
2021/12/03 23:12:42;;;;;;;5.97;4.30;;;1.40;99.90;;;;;;5026998;28;20049;-83
2021/12/03 23:15:30;;;;;;;7.93;4.93;;;1.40;99.90;;;;;;5016212;28;20061;-83
2021/12/03 23:18:18;;;;;;;8.80;4.93;;;1.30;99.90;;;;;;5014817;28;20386;-80
2021/12/03 23:21:09;;;;;;;5.65;4.13;;;1.40;99.90;;;;;;5012652;28;20059;-82
2021/12/03 23:23:59;;;;;;;8.95;4.43;;;1.30;99.90;;;;;;5008210;28;20037;-83
2021/12/03 23:26:48;;;;;;;6.90;4.38;;;1.30;99.90;;;;;;4998718;28;20544;-82
2021/12/03 23:29:39;;;;;;;7.05;5.07;;;1.30;99.90;;;;;;5011700;28;20058;-82
2021/12/03 23:32:27;;;;;;;9.75;4.82;;;1.30;99.90;;;;;;5017793;28;20072;-83
2021/12/03 23:35:17;;;;;;;8.68;5.32;;;1.30;99.90;;;;;;4998582;28;20379;-81
2021/12/03 23:38:12;;;;;;;11.52;5.38;;;1.30;99.90;;;;;;5010479;28;20071;-82
2021/12/03 23:40:59;;;;;;;9.27;5.45;;;1.30;99.90;;;;;;4999466;28;20539;-83
2021/12/03 23:43:46;;;;;;;6.60;4.70;;;1.30;99.90;;;;;;5026778;28;20045;-83
2021/12/03 23:46:34;;;;;;;7.72;4.80;;;1.40;99.90;;;;;;5027680;28;20450;-83
2021/12/03 23:49:23;;;;;;;8.85;4.40;;;1.40;99.90;;;;;;5001132;28;20046;-82
2021/12/03 23:52:10;;;;;;;6.00;4.35;;;1.30;99.90;;;;;;5011121;28;20045;-82
2021/12/03 23:55:01;;;;;;;7.32;4.68;;;1.40;99.90;;;;;;5013519;28;20041;-83
2021/12/03 23:57:50;;;;;;;7.25;4.78;;;1.30;99.90;;;;;;5012868;28;20044;-81
